createdAt,value
2024-01-05T00:01:00.515Z,80.05
2024-01-05T00:06:03.976Z,80.19
2024-01-05T00:11:07.229Z,79.45
2024-01-05T00:16:18.920Z,79.71
2024-01-05T00:21:23.001Z,79.54
2024-01-05T00:26:26.743Z,79.46
2024-01-05T00:31:31.528Z,79.29
2024-01-05T00:36:34.991Z,79.66
2024-01-05T00:41:38.393Z,79.94
2024-01-05T00:46:44.034Z,79.86
2024-01-05T00:51:47.714Z,79.27
2024-01-05T00:56:51.043Z,79.39
2024-01-05T01:01:55.751Z,79.66
2024-01-05T01:06:59.042Z,79.93
2024-01-05T01:12:02.491Z,79.55
2024-01-05T01:17:07.384Z,79.34
2024-01-05T01:22:10.818Z,80.23
2024-01-05T01:27:14.421Z,79.83
2024-01-05T01:32:19.213Z,79.95
2024-01-05T01:37:22.578Z,79.34
2024-01-05T01:42:26.390Z,79.51
2024-01-05T01:47:31.397Z,79.48
2024-01-05T01:52:34.740Z,79.64
2024-01-05T01:57:39.013Z,79.04
2024-01-05T02:02:43.931Z,79.84
2024-01-05T02:07:47.276Z,80.12
2024-01-05T02:12:50.596Z,79.93
2024-01-05T02:17:55.750Z,79.97
2024-01-05T02:23:02.746Z,79.68
2024-01-05T02:28:07.880Z,80.81
2024-01-05T02:33:11.384Z,80.49
2024-01-05T02:38:14.681Z,80.42
2024-01-05T02:43:19.439Z,80.52
2024-01-05T02:48:23.032Z,80.00
2024-01-05T02:53:26.405Z,80.18
2024-01-05T02:58:31.064Z,80.67
2024-01-05T03:03:34.432Z,80.29
2024-01-05T03:08:37.800Z,79.90
2024-01-05T03:13:42.634Z,79.71
2024-01-05T03:18:46.183Z,80.37
2024-01-05T03:23:49.525Z,80.26
2024-01-05T03:28:54.541Z,79.99
2024-01-05T03:33:57.908Z,79.68
2024-01-05T03:39:02.959Z,80.21
2024-01-05T03:44:07.733Z,80.43
2024-01-05T03:49:11.042Z,80.25
2024-01-05T03:54:14.414Z,80.58
2024-01-05T03:59:19.514Z,81.53
2024-01-05T04:04:23.062Z,80.87
2024-01-05T04:09:26.461Z,80.48
2024-01-05T04:14:31.163Z,81.12
2024-01-05T04:19:34.757Z,80.54
2024-01-05T04:24:38.179Z,81.04
2024-01-05T04:29:42.943Z,81.28
2024-01-05T04:34:46.287Z,81.00
2024-01-05T04:39:52.026Z,81.06
2024-01-05T04:44:57.279Z,81.58
2024-01-05T04:50:00.807Z,81.67
2024-01-05T04:55:04.697Z,81.58
2024-01-05T05:00:10.628Z,81.45
2024-01-05T05:05:14.016Z,81.45
2024-01-05T05:10:17.481Z,82.02
2024-01-05T05:15:22.472Z,82.19
2024-01-05T05:20:26.030Z,82.35
2024-01-05T05:25:29.552Z,82.13
2024-01-05T05:30:34.853Z,82.30
2024-01-05T05:35:38.268Z,82.13
2024-01-05T05:40:41.602Z,83.17
2024-01-05T05:45:46.405Z,82.72
2024-01-05T05:50:49.804Z,83.15
2024-01-05T05:55:53.486Z,83.22
2024-01-05T06:00:58.317Z,83.79
2024-01-05T06:06:01.912Z,83.21
2024-01-05T06:11:05.474Z,82.91
2024-01-05T06:16:10.723Z,83.17
2024-01-05T06:21:14.061Z,83.63
2024-01-05T06:26:17.371Z,83.60
2024-01-05T06:31:24.390Z,83.29
2024-01-05T06:36:27.745Z,83.43
2024-01-05T06:41:31.129Z,83.78
2024-01-05T06:46:36.152Z,82.95
2024-01-05T06:51:39.789Z,83.50
2024-01-05T06:56:43.843Z,83.45
2024-01-05T07:01:49.496Z,83.10
2024-01-05T07:06:52.907Z,83.06
2024-01-05T07:11:56.387Z,83.17
2024-01-05T07:17:01.611Z,83.26
2024-01-05T07:22:05.355Z,83.11
2024-01-05T07:27:10.530Z,83.05
2024-01-05T07:32:15.757Z,83.24
2024-01-05T07:37:19.756Z,82.91
2024-01-05T07:42:23.124Z,82.76
2024-01-05T07:47:28.499Z,83.02
2024-01-05T07:52:31.860Z,82.74
2024-01-05T07:57:35.345Z,82.52
2024-01-05T08:02:40.681Z,83.09
2024-01-05T08:07:46.358Z,82.74
2024-01-05T08:12:49.866Z,82.97
2024-01-05T08:17:55.590Z,82.75
2024-01-05T08:22:59.307Z,82.72
2024-01-05T08:28:03.688Z,83.22
2024-01-05T08:33:08.995Z,83.65
2024-01-05T08:38:12.557Z,83.60
2024-01-05T08:43:15.848Z,83.82
2024-01-05T08:48:20.647Z,83.78
2024-01-05T08:53:24.161Z,83.51
2024-01-05T08:58:28.569Z,83.86
2024-01-05T09:03:33.680Z,83.87
2024-01-05T09:08:37.057Z,84.31
2024-01-05T09:13:40.497Z,84.21
2024-01-05T09:18:45.472Z,84.33
2024-01-05T09:23:48.764Z,83.97
2024-01-05T09:28:52.695Z,84.52
2024-01-05T09:33:58.166Z,84.18
2024-01-05T09:39:01.777Z,84.29
2024-01-05T09:44:06.079Z,84.65
2024-01-05T09:49:11.436Z,85.05
2024-01-05T09:54:15.235Z,84.80
2024-01-05T09:59:19.026Z,85.15
2024-01-05T10:04:24.020Z,84.64
2024-01-05T10:09:27.929Z,84.86
2024-01-05T10:14:31.398Z,85.43
2024-01-05T10:19:36.581Z,85.38
2024-01-05T10:24:40.264Z,85.41
2024-01-05T10:29:45.661Z,85.38
2024-01-05T10:34:51.877Z,85.41
2024-01-05T10:39:55.807Z,85.69
2024-01-05T10:45:01.369Z,85.44
2024-01-05T10:50:08.905Z,85.39
2024-01-05T10:55:12.949Z,85.46
2024-01-05T11:00:17.131Z,85.18
2024-01-05T11:05:22.580Z,85.46
2024-01-05T11:10:33.296Z,85.22
2024-01-05T11:15:50.354Z,85.08
2024-01-05T11:21:06.034Z,84.99
2024-01-05T11:26:10.081Z,85.48
2024-01-05T11:31:13.686Z,85.35
2024-01-05T11:36:57.405Z,85.36
2024-01-05T11:42:00.764Z,85.20
2024-01-05T11:47:04.478Z,85.01
2024-01-05T11:52:09.624Z,84.91
2024-01-05T11:57:12.984Z,84.72
2024-01-05T12:02:19.592Z,85.18
2024-01-05T12:07:27.222Z,84.99
2024-01-05T12:12:30.704Z,85.54
2024-01-05T12:17:34.376Z,85.15
2024-01-05T12:22:39.084Z,85.21
2024-01-05T12:27:42.846Z,84.95
2024-01-05T12:32:46.528Z,85.18
2024-01-05T12:37:54.824Z,84.95
2024-01-05T12:42:58.205Z,85.09
2024-01-05T12:48:12.153Z,84.69
2024-01-05T12:53:21.280Z,84.82
2024-01-05T12:58:25.225Z,84.73
2024-01-05T13:03:28.696Z,84.77
2024-01-05T13:08:36.469Z,84.90
2024-01-05T13:13:40.022Z,84.74
2024-01-05T13:18:43.982Z,84.70
2024-01-05T13:23:53.533Z,84.87
2024-01-05T13:28:57.164Z,84.55
2024-01-05T13:34:00.859Z,84.36
2024-01-05T13:39:07.422Z,84.42
2024-01-05T13:44:10.916Z,84.55
2024-01-05T13:49:14.221Z,84.16
2024-01-05T13:54:19.104Z,84.57
2024-01-05T13:59:22.440Z,84.54
2024-01-05T14:04:25.869Z,84.76
2024-01-05T14:09:30.761Z,84.62
2024-01-05T14:14:34.329Z,84.91
2024-01-05T14:19:37.746Z,85.26
2024-01-05T14:24:43.016Z,84.79
2024-01-05T14:29:46.366Z,84.78
2024-01-05T14:34:49.657Z,85.38
2024-01-05T14:39:54.323Z,85.35
2024-01-05T14:44:58.038Z,85.24
2024-01-05T14:50:01.346Z,85.70
2024-01-05T14:55:07.369Z,85.63
2024-01-05T15:00:12.279Z,85.94
2024-01-05T15:05:16.053Z,85.70
2024-01-05T15:10:20.920Z,85.84
2024-01-05T15:15:24.487Z,86.05
2024-01-05T15:20:28.315Z,86.22
2024-01-05T15:25:33.067Z,86.49
2024-01-05T15:30:36.834Z,86.34
2024-01-05T15:35:40.334Z,86.85
2024-01-05T15:40:45.150Z,86.87
2024-01-05T15:45:48.929Z,87.03
2024-01-05T15:50:52.768Z,87.08
2024-01-05T15:55:59.300Z,86.95
2024-01-05T16:01:03.063Z,87.62
2024-01-05T16:06:11.519Z,87.65
2024-01-05T16:11:16.638Z,87.79
2024-01-05T16:16:22.460Z,87.63
2024-01-05T16:21:28.115Z,87.91
2024-01-05T16:26:32.853Z,88.28
2024-01-05T16:31:36.235Z,88.25
2024-01-05T16:36:39.634Z,88.37
2024-01-05T16:41:44.295Z,88.46
2024-01-05T16:46:47.506Z,88.47
2024-01-05T16:51:51.231Z,88.47
2024-01-05T16:56:56.517Z,88.26
2024-01-05T17:01:59.980Z,88.79
2024-01-05T17:07:03.304Z,88.55
2024-01-05T17:12:08.623Z,89.15
2024-01-05T17:17:11.876Z,89.20
2024-01-05T17:22:15.370Z,89.04
2024-01-05T17:27:20.599Z,88.99
2024-01-05T17:32:24.003Z,89.17
2024-01-05T17:37:27.612Z,89.61
2024-01-05T17:42:32.322Z,89.36
2024-01-05T17:47:35.848Z,89.17
2024-01-05T17:52:39.166Z,89.47
2024-01-05T17:57:44.042Z,89.57
2024-01-05T18:02:47.605Z,89.77
2024-01-05T18:07:54.426Z,90.13
2024-01-05T18:12:59.251Z,89.96
2024-01-05T18:18:02.823Z,90.13
2024-01-05T18:23:06.591Z,89.95
2024-01-05T18:28:11.500Z,89.73
2024-01-05T18:33:15.118Z,90.16
2024-01-05T18:38:18.615Z,90.10
2024-01-05T18:43:24.098Z,90.05
2024-01-05T18:48:27.582Z,90.19
2024-01-05T18:53:31.021Z,90.74
2024-01-05T18:58:37.110Z,90.29
2024-01-05T19:03:40.552Z,90.84
2024-01-05T19:08:43.834Z,90.55
2024-01-05T19:13:48.593Z,90.90
2024-01-05T19:18:52.232Z,90.79
2024-01-05T19:23:55.700Z,90.52
2024-01-05T19:29:00.547Z,90.54
2024-01-05T19:34:04.025Z,90.54
2024-01-05T19:39:09.606Z,90.33
2024-01-05T19:44:17.350Z,90.40
2024-01-05T19:49:20.816Z,90.47
2024-01-05T19:54:24.151Z,90.73
2024-01-05T19:59:29.326Z,90.72
2024-01-05T20:04:32.677Z,90.72
2024-01-05T20:09:36.109Z,90.60
2024-01-05T20:14:41.641Z,91.01
2024-01-05T20:19:45.659Z,90.97
2024-01-05T20:24:49.070Z,90.36
2024-01-05T20:29:54.231Z,90.52
2024-01-05T20:34:57.518Z,90.48
2024-01-05T20:40:01.507Z,90.17
2024-01-05T20:45:08.827Z,90.97
2024-01-05T20:50:12.248Z,90.12
2024-01-05T20:55:15.854Z,90.10
2024-01-05T21:00:22.060Z,90.27
2024-01-05T21:05:26.435Z,89.87
2024-01-05T21:10:29.693Z,89.70
2024-01-05T21:15:34.628Z,90.11
2024-01-05T21:20:37.934Z,90.50
2024-01-05T21:25:41.139Z,90.08
2024-01-05T21:30:45.947Z,89.79
2024-01-05T21:35:50.547Z,89.74
2024-01-05T21:40:53.876Z,90.58
2024-01-05T21:45:59.783Z,90.50
2024-01-05T21:51:03.191Z,90.90
2024-01-05T21:56:09.219Z,90.23
2024-01-05T22:01:14.147Z,89.97
2024-01-05T22:06:17.597Z,90.74
2024-01-05T22:11:21.135Z,90.05
2024-01-05T22:16:26.166Z,89.86
2024-01-05T22:21:29.680Z,89.95
2024-01-05T22:26:35.299Z,90.31
2024-01-05T22:31:40.265Z,89.48
2024-01-05T22:36:44.499Z,90.08
2024-01-05T22:41:47.887Z,90.01
2024-01-05T22:46:52.623Z,89.34
2024-01-05T22:51:56.136Z,89.89
2024-01-05T22:56:59.420Z,88.93
2024-01-05T23:02:04.926Z,88.88
2024-01-05T23:07:08.616Z,89.52
2024-01-05T23:12:12.508Z,89.13
2024-01-05T23:17:17.184Z,88.89
2024-01-05T23:22:20.796Z,88.86
2024-01-05T23:27:24.569Z,89.19
2024-01-05T23:32:29.708Z,89.06
2024-01-05T23:37:33.186Z,89.10
2024-01-05T23:42:36.686Z,89.40
2024-01-05T23:47:41.805Z,89.32
2024-01-05T23:52:45.430Z,89.04
2024-01-05T23:57:48.813Z,89.04
